Time;durP1;ratioP1;P1;durP2;ratioP2;P2;SDS_P1;SDS_P2;PMS_P1;PMS_P2;Temp;Humidity;BMP_temperature;BMP_pressure;BME280_temperature;BME280_humidity;BME280_pressure;Samples;Min_cycle;Max_cycle;Signal;HPM_P1;HPM_P2
2024/01/08 00:01:23;;;;;;;2.60;2.40;;;13.10;53.20;;;;;;4204577;28;20075;-48
2024/01/08 00:04:05;;;;;;;3.28;2.78;;;13.10;52.50;;;;;;4204197;28;20055;-51
2024/01/08 00:06:47;;;;;;;3.28;2.97;;;13.10;52.50;;;;;;4204072;28;20093;-52
2024/01/08 00:09:30;;;;;;;3.15;2.45;;;13.20;52.50;;;;;;4204832;28;20065;-50
2024/01/08 00:12:11;;;;;;;3.58;3.10;;;13.30;53.00;;;;;;4204742;28;20387;-50
2024/01/08 00:14:53;;;;;;;3.63;2.75;;;13.40;54.10;;;;;;4204315;28;20055;-49
2024/01/08 00:17:34;;;;;;;3.25;2.65;;;13.60;53.90;;;;;;4204221;28;20186;-48
2024/01/08 00:20:17;;;;;;;4.28;3.03;;;13.70;53.10;;;;;;4203832;28;20066;-39
2024/01/08 00:22:58;;;;;;;3.30;3.00;;;13.90;52.10;;;;;;4203914;28;20105;-38
2024/01/08 00:25:40;;;;;;;3.08;2.78;;;13.90;52.30;;;;;;4203992;28;20102;-38
2024/01/08 00:28:21;;;;;;;5.18;2.80;;;14.00;52.40;;;;;;4202823;28;20087;-39
2024/01/08 00:31:02;;;;;;;2.80;2.60;;;14.10;52.50;;;;;;4204296;28;20093;-38
2024/01/08 00:33:42;;;;;;;4.17;2.93;;;14.10;51.10;;;;;;4202806;28;20059;-51
2024/01/08 00:36:25;;;;;;;3.65;2.80;;;14.10;52.00;;;;;;4203959;28;20059;-51
2024/01/08 00:39:06;;;;;;;4.15;3.50;;;14.10;52.60;;;;;;4212114;27;20051;-48
2024/01/08 00:41:49;;;;;;;3.30;3.00;;;14.20;52.10;;;;;;4204652;28;20055;-52
2024/01/08 00:44:30;;;;;;;3.42;2.78;;;14.20;51.50;;;;;;4208535;27;20189;-49
2024/01/08 00:47:11;;;;;;;3.13;2.60;;;14.20;52.80;;;;;;4221007;27;20066;-51
2024/01/08 00:49:52;;;;;;;3.45;3.08;;;14.20;53.00;;;;;;4221089;27;20410;-50
2024/01/08 00:52:33;;;;;;;3.10;2.67;;;14.20;53.10;;;;;;4221083;27;20050;-51
2024/01/08 00:55:14;;;;;;;4.18;3.08;;;14.20;52.70;;;;;;4222053;27;20100;-49
2024/01/08 00:57:58;;;;;;;6.05;3.13;;;14.20;51.80;;;;;;4219564;27;20050;-47
2024/01/08 01:00:39;;;;;;;3.50;3.20;;;14.10;51.70;;;;;;4203419;28;20046;-49
2024/01/08 01:03:20;;;;;;;3.33;2.90;;;14.00;52.30;;;;;;4203664;28;20051;-48
2024/01/08 01:06:01;;;;;;;4.13;3.20;;;13.90;52.50;;;;;;4204153;28;20043;-50
2024/01/08 01:08:43;;;;;;;4.03;3.28;;;13.90;54.30;;;;;;4203361;28;20054;-51
2024/01/08 01:11:24;;;;;;;4.13;2.90;;;14.00;55.00;;;;;;4186563;28;20453;-52
2024/01/08 01:14:06;;;;;;;3.42;2.67;;;14.00;54.20;;;;;;4187312;28;20474;-48
2024/01/08 01:16:47;;;;;;;3.20;2.90;;;14.10;54.30;;;;;;4202443;27;20079;-51
2024/01/08 01:19:29;;;;;;;3.95;3.13;;;14.20;54.50;;;;;;4202011;27;20055;-51
2024/01/08 01:22:10;;;;;;;4.60;3.10;;;14.30;54.00;;;;;;4202536;27;20055;-49
2024/01/08 01:24:51;;;;;;;3.75;2.95;;;14.30;53.50;;;;;;4203667;28;20193;-47
2024/01/08 01:27:32;;;;;;;3.28;2.97;;;14.30;53.40;;;;;;4203851;28;20055;-48
2024/01/08 01:30:15;;;;;;;5.07;3.20;;;14.30;54.50;;;;;;4209540;27;20180;-47
2024/01/08 01:32:56;;;;;;;3.60;3.15;;;14.40;54.50;;;;;;4218758;27;20055;-51
2024/01/08 01:35:37;;;;;;;5.75;3.47;;;14.50;54.00;;;;;;4211187;27;20161;-50
2024/01/08 01:38:18;;;;;;;5.13;3.95;;;14.60;54.00;;;;;;4203806;27;20462;-51
2024/01/08 01:40:59;;;;;;;5.05;3.33;;;14.70;53.50;;;;;;4188452;27;20131;-51
2024/01/08 01:43:40;;;;;;;4.68;3.58;;;14.70;53.10;;;;;;4186962;28;20056;-47
2024/01/08 01:46:27;;;;;;;4.22;3.83;;;14.70;52.60;;;;;;4204012;27;20051;-50
2024/01/08 01:49:11;;;;;;;4.07;3.33;;;14.70;52.90;;;;;;4214203;27;20172;-48
2024/01/08 01:51:56;;;;;;;4.20;3.60;;;14.60;52.70;;;;;;4220777;27;20063;-49
2024/01/08 01:54:37;;;;;;;4.10;3.70;;;14.50;52.40;;;;;;4200224;27;20105;-49
2024/01/08 01:57:18;;;;;;;4.20;3.47;;;14.40;52.80;;;;;;4194357;28;20047;-50
2024/01/08 02:00:00;;;;;;;4.32;3.90;;;14.20;53.50;;;;;;4203606;28;20062;-48
2024/01/08 02:02:43;;;;;;;3.78;3.47;;;14.10;53.20;;;;;;4203612;28;20051;-51
2024/01/08 02:05:24;;;;;;;4.15;3.70;;;14.00;52.30;;;;;;4203637;28;20217;-50
2024/01/08 02:08:07;;;;;;;4.30;3.88;;;13.90;54.00;;;;;;4203729;27;20059;-48
2024/01/08 02:10:48;;;;;;;4.45;4.05;;;13.80;53.50;;;;;;4203571;28;20055;-48
2024/01/08 02:13:29;;;;;;;5.20;3.57;;;13.90;53.30;;;;;;4203064;28;20120;-47
2024/01/08 02:16:10;;;;;;;4.63;4.10;;;14.00;54.20;;;;;;4205700;27;20055;-50
2024/01/08 02:18:53;;;;;;;4.10;3.70;;;14.10;52.70;;;;;;4209019;27;20097;-50
2024/01/08 02:21:34;;;;;;;4.07;3.75;;;14.30;51.40;;;;;;4222663;27;20088;-48
2024/01/08 02:24:16;;;;;;;5.82;3.63;;;14.50;52.00;;;;;;4223536;27;20051;-50
2024/01/08 02:27:01;;;;;;;6.47;4.10;;;14.60;50.90;;;;;;4223319;27;20054;-47
2024/01/08 02:29:42;;;;;;;6.22;4.15;;;14.70;51.20;;;;;;4207004;27;20496;-46
2024/01/08 02:32:23;;;;;;;4.70;3.80;;;14.80;51.80;;;;;;4205934;28;20055;-47
2024/01/08 02:35:04;;;;;;;4.28;3.88;;;14.90;50.90;;;;;;4198294;27;20048;-47
2024/01/08 02:37:45;;;;;;;;;;;15.00;49.80;;;;;;4194050;27;20060;-47
2024/01/08 02:40:29;;;;;;;4.80;3.70;;;15.00;49.10;;;;;;4205861;28;19946;-48
2024/01/08 02:43:09;;;;;;;3.90;3.00;;;15.00;50.00;;;;;;4206253;28;20062;-49
2024/01/08 02:45:50;;;;;;;4.45;3.25;;;14.90;50.20;;;;;;4205275;28;20084;-49
2024/01/08 02:48:31;;;;;;;4.93;3.58;;;14.90;49.40;;;;;;4221518;27;20112;-49
2024/01/08 02:51:14;;;;;;;4.43;4.03;;;14.80;50.40;;;;;;4221317;27;20046;-51
2024/01/08 02:53:55;;;;;;;4.40;3.65;;;14.70;51.00;;;;;;4222966;27;20067;-49
2024/01/08 02:56:38;;;;;;;5.20;3.67;;;14.80;50.30;;;;;;4223227;27;20103;-51
2024/01/08 02:59:18;;;;;;;3.88;3.42;;;14.80;51.00;;;;;;4222032;27;20054;-47
2024/01/08 03:01:59;;;;;;;3.40;3.03;;;14.90;50.90;;;;;;4222305;27;20462;-50
2024/01/08 03:04:40;;;;;;;3.65;3.35;;;15.00;52.00;;;;;;4222769;27;20042;-47
2024/01/08 03:07:21;;;;;;;3.70;3.40;;;15.10;50.40;;;;;;4221203;27;20504;-50
2024/01/08 03:10:03;;;;;;;4.60;3.72;;;15.30;49.70;;;;;;4205685;28;20088;-50
2024/01/08 03:12:45;;;;;;;5.25;3.50;;;15.40;50.20;;;;;;4205893;28;20055;-48
2024/01/08 03:15:26;;;;;;;3.90;3.50;;;15.40;50.10;;;;;;4205710;28;20399;-48
2024/01/08 03:18:07;;;;;;;5.20;3.15;;;15.40;49.90;;;;;;4201933;27;20082;-51
2024/01/08 03:20:48;;;;;;;;;;;15.40;49.40;;;;;;4195148;27;20066;-48
2024/01/08 03:23:30;;;;;;;4.40;3.13;;;15.40;49.70;;;;;;4203603;27;19927;-46
2024/01/08 03:26:11;;;;;;;4.85;3.40;;;15.40;49.30;;;;;;4204713;28;20180;-48
2024/01/08 03:28:53;;;;;;;3.47;3.17;;;15.30;49.40;;;;;;4205507;28;20088;-46
2024/01/08 03:31:40;;;;;;;4.43;3.47;;;15.30;49.50;;;;;;4205100;28;20059;-50
2024/01/08 03:34:22;;;;;;;3.33;3.03;;;15.30;49.70;;;;;;4205724;28;20063;-51
2024/01/08 03:37:02;;;;;;;3.33;3.03;;;15.20;49.70;;;;;;4205301;28;20768;-47
2024/01/08 03:39:44;;;;;;;3.42;3.13;;;15.10;49.50;;;;;;4204093;28;20126;-48
2024/01/08 03:42:25;;;;;;;4.82;3.33;;;15.00;49.70;;;;;;4204971;27;20067;-48
2024/01/08 03:45:09;;;;;;;3.40;3.08;;;14.90;50.20;;;;;;4203383;27;20189;-51
2024/01/08 03:47:50;;;;;;;3.47;3.17;;;14.70;50.10;;;;;;4204528;27;20074;-52
2024/01/08 03:50:33;;;;;;;3.95;2.85;;;14.60;50.60;;;;;;4204754;28;20047;-47
2024/01/08 03:53:14;;;;;;;3.35;2.90;;;14.60;51.50;;;;;;4204862;28;20054;-53
2024/01/08 03:55:55;;;;;;;3.55;3.28;;;14.70;50.70;;;;;;4204726;28;20063;-49
2024/01/08 03:58:38;;;;;;;2.88;2.65;;;14.80;50.80;;;;;;4218744;27;20129;-46
2024/01/08 04:01:20;;;;;;;5.22;3.10;;;14.90;50.60;;;;;;4221062;27;20108;-48
2024/01/08 04:04:01;;;;;;;3.05;2.75;;;14.90;51.00;;;;;;4221622;27;20085;-46
2024/01/08 04:06:42;;;;;;;2.40;2.22;;;15.00;50.10;;;;;;4221919;27;20051;-48
2024/01/08 04:09:23;;;;;;;2.90;2.63;;;15.10;48.50;;;;;;4221364;27;20082;-49
2024/01/08 04:12:04;;;;;;;4.45;2.47;;;15.10;49.10;;;;;;4216826;27;20320;-47
2024/01/08 04:14:46;;;;;;;3.50;2.40;;;15.10;48.10;;;;;;4204628;28;20117;-47
2024/01/08 04:17:28;;;;;;;3.22;2.58;;;15.00;46.70;;;;;;4205108;28;20054;-47
2024/01/08 04:20:10;;;;;;;3.50;2.33;;;15.00;48.20;;;;;;4216621;27;20814;-49
2024/01/08 04:22:51;;;;;;;3.83;2.60;;;14.90;49.90;;;;;;4204753;28;20383;-47
2024/01/08 04:25:32;;;;;;;3.92;2.17;;;14.90;50.40;;;;;;4205153;28;20050;-47
2024/01/08 04:28:14;;;;;;;2.40;2.20;;;15.00;50.80;;;;;;4207516;27;20050;-50
2024/01/08 04:30:54;;;;;;;2.83;2.60;;;15.10;50.70;;;;;;4221249;27;20076;-49
2024/01/08 04:33:37;;;;;;;2.38;2.20;;;15.10;50.50;;;;;;4221172;27;20059;-50
2024/01/08 04:36:18;;;;;;;2.72;2.53;;;15.10;50.90;;;;;;4221492;27;20096;-48
2024/01/08 04:38:59;;;;;;;2.47;2.28;;;15.20;50.70;;;;;;4211027;27;20055;-49
2024/01/08 04:41:40;;;;;;;2.22;2.13;;;15.30;51.10;;;;;;4213859;27;20090;-49
2024/01/08 04:44:22;;;;;;;2.60;1.92;;;15.40;49.50;;;;;;4220712;27;20185;-45
2024/01/08 04:47:03;;;;;;;1.90;1.80;;;15.40;49.00;;;;;;4220818;27;20442;-49
2024/01/08 04:49:45;;;;;;;2.08;1.98;;;15.50;50.20;;;;;;4204448;28;20126;-51
2024/01/08 04:52:26;;;;;;;1.80;1.70;;;15.50;50.10;;;;;;4204310;28;20092;-51
2024/01/08 04:55:07;;;;;;;2.35;2.20;;;15.50;50.40;;;;;;4204288;28;20105;-50
2024/01/08 04:57:49;;;;;;;2.80;2.40;;;15.40;50.30;;;;;;4213376;27;20058;-47
2024/01/08 05:00:30;;;;;;;2.42;2.22;;;15.40;50.50;;;;;;4186207;28;20063;-49
2024/01/08 05:03:12;;;;;;;2.60;2.33;;;15.30;49.40;;;;;;4186695;28;20051;-47
2024/01/08 05:05:54;;;;;;;2.30;2.10;;;15.20;50.10;;;;;;4187045;28;20067;-52
2024/01/08 05:08:35;;;;;;;2.90;2.42;;;15.10;49.60;;;;;;4191427;27;20055;-50
2024/01/08 05:11:17;;;;;;;2.33;2.13;;;15.00;50.60;;;;;;4220353;27;20059;-48
2024/01/08 05:13:57;;;;;;;2.55;2.35;;;15.00;51.00;;;;;;4200907;28;20102;-49
2024/01/08 05:16:39;;;;;;;3.15;2.53;;;15.00;50.90;;;;;;4219027;27;20050;-47
2024/01/08 05:19:19;;;;;;;2.90;2.47;;;15.10;49.90;;;;;;4212299;27;20054;-48
2024/01/08 05:22:02;;;;;;;3.08;2.80;;;15.10;50.40;;;;;;4203506;28;20055;-50
2024/01/08 05:24:43;;;;;;;2.88;2.53;;;15.20;51.20;;;;;;4203658;28;20059;-47
2024/01/08 05:27:24;;;;;;;3.25;2.40;;;15.30;50.00;;;;;;4203736;28;20081;-49
2024/01/08 05:30:06;;;;;;;4.30;2.47;;;15.40;50.30;;;;;;4209606;27;20067;-50
2024/01/08 05:32:50;;;;;;;2.72;2.50;;;15.40;49.80;;;;;;4186686;28;20641;-50
2024/01/08 05:35:31;;;;;;;2.30;2.10;;;15.50;49.40;;;;;;4203057;27;20054;-47
2024/01/08 05:38:16;;;;;;;4.03;2.17;;;15.50;50.10;;;;;;4203205;27;20502;-49
2024/01/08 05:40:57;;;;;;;2.97;2.47;;;15.60;50.30;;;;;;4203377;28;20063;-51
2024/01/08 05:43:38;;;;;;;2.97;2.70;;;15.60;51.30;;;;;;4198876;27;20055;-47
2024/01/08 05:46:19;;;;;;;5.43;2.40;;;15.60;50.90;;;;;;4220252;27;20065;-46
2024/01/08 05:49:01;;;;;;;4.05;2.95;;;15.70;51.40;;;;;;4204678;28;20059;-38
2024/01/08 05:51:42;;;;;;;3.60;2.25;;;15.70;51.50;;;;;;4205778;28;20503;-38
2024/01/08 05:54:24;;;;;;;3.08;2.67;;;15.70;51.40;;;;;;4206703;28;20071;-38
2024/01/08 05:57:05;;;;;;;4.28;2.67;;;15.70;51.10;;;;;;4206726;28;20054;-38
2024/01/08 05:59:46;;;;;;;;;;;15.70;51.50;;;;;;4218423;27;20386;-38
2024/01/08 06:02:27;;;;;;;2.72;2.40;;;15.60;51.60;;;;;;4223384;27;20010;-38
2024/01/08 06:05:09;;;;;;;3.03;2.63;;;15.50;51.40;;;;;;4206811;28;20096;-38
2024/01/08 06:07:50;;;;;;;2.50;2.30;;;15.40;51.20;;;;;;4207156;28;20121;-38
2024/01/08 06:10:33;;;;;;;3.13;2.50;;;15.40;50.30;;;;;;4205427;28;20116;-38
2024/01/08 06:13:15;;;;;;;3.95;2.80;;;15.40;50.70;;;;;;4207181;28;20051;-38
2024/01/08 06:15:56;;;;;;;5.53;2.90;;;15.40;51.30;;;;;;4213811;27;20109;-38
2024/01/08 06:18:37;;;;;;;2.47;2.28;;;15.50;51.70;;;;;;4218901;27;20483;-37
2024/01/08 06:21:18;;;;;;;4.05;2.67;;;15.50;50.90;;;;;;4206773;28;20059;-38
2024/01/08 06:23:59;;;;;;;5.25;2.75;;;15.50;50.90;;;;;;4206872;28;20530;-38
2024/01/08 06:26:41;;;;;;;4.25;2.75;;;15.40;50.70;;;;;;4206262;28;20063;-38
2024/01/08 06:29:22;;;;;;;4.32;3.10;;;15.40;49.70;;;;;;4210138;27;20066;-38
2024/01/08 06:32:04;;;;;;;5.97;2.95;;;15.20;49.90;;;;;;4208835;27;20090;-37
2024/01/08 06:34:45;;;;;;;5.00;2.40;;;15.20;50.30;;;;;;4220526;27;20091;-37
2024/01/08 06:37:26;;;;;;;3.83;2.88;;;15.20;50.20;;;;;;4215093;27;20509;-37
2024/01/08 06:40:08;;;;;;;7.18;2.78;;;15.20;50.30;;;;;;4207208;28;20051;-38
2024/01/08 06:42:50;;;;;;;3.60;3.10;;;15.20;50.40;;;;;;4217956;27;20517;-37
2024/01/08 06:45:36;;;;;;;3.22;2.15;;;15.20;50.40;;;;;;4222797;27;20180;-37
2024/01/08 06:48:17;;;;;;;4.13;2.80;;;15.10;49.90;;;;;;4206257;28;20434;-37
2024/01/08 06:51:01;;;;;;;5.78;3.40;;;15.10;50.30;;;;;;4206073;28;20054;-37
2024/01/08 06:53:44;;;;;;;5.30;3.22;;;15.00;49.90;;;;;;4205366;28;20490;-48
2024/01/08 06:56:25;;;;;;;4.53;3.60;;;15.10;48.80;;;;;;4211861;27;20051;-46
2024/01/08 06:59:08;;;;;;;6.30;3.10;;;15.10;49.60;;;;;;4205872;28;20438;-52
2024/01/08 07:01:51;;;;;;;2.80;2.53;;;15.20;49.20;;;;;;4210508;27;20080;-53
2024/01/08 07:04:32;;;;;;;4.22;2.67;;;15.20;49.50;;;;;;4222472;27;20240;-53
2024/01/08 07:07:13;;;;;;;5.65;3.45;;;15.30;50.00;;;;;;4222592;27;20063;-51
2024/01/08 07:09:54;;;;;;;6.60;2.87;;;15.30;50.40;;;;;;4208752;27;20058;-52
2024/01/08 07:12:35;;;;;;;2.83;2.17;;;15.30;50.30;;;;;;4205169;28;20289;-52
2024/01/08 07:15:39;;;;;;;4.00;2.33;;;15.40;50.60;;;;;;4205049;28;20051;-50
2024/01/08 07:18:20;;;;;;;3.90;2.55;;;15.50;51.20;;;;;;4204473;28;20062;-52
2024/01/08 07:21:01;;;;;;;4.00;2.67;;;15.50;50.30;;;;;;4205168;28;20100;-48
2024/01/08 07:23:42;;;;;;;3.30;2.58;;;15.50;49.20;;;;;;4215786;27;20174;-47
2024/01/08 07:26:23;;;;;;;4.30;2.10;;;15.60;50.70;;;;;;4205168;28;20193;-48
2024/01/08 07:29:04;;;;;;;4.38;2.80;;;15.70;49.90;;;;;;4188498;28;20141;-50
2024/01/08 07:31:46;;;;;;;3.15;2.38;;;15.80;50.30;;;;;;4205240;27;20055;-45
2024/01/08 07:34:27;;;;;;;3.55;3.17;;;15.80;49.00;;;;;;4204865;28;20125;-50
2024/01/08 07:37:09;;;;;;;2.93;2.07;;;15.70;47.00;;;;;;4205274;28;20051;-45
2024/01/08 07:39:50;;;;;;;2.65;2.45;;;15.60;45.50;;;;;;4215430;27;20329;-45
2024/01/08 07:42:31;;;;;;;2.13;1.95;;;15.60;45.80;;;;;;4204832;28;20104;-45
2024/01/08 07:45:12;;;;;;;4.05;2.60;;;15.50;47.00;;;;;;4205275;28;20079;-46
2024/01/08 07:47:54;;;;;;;2.53;2.13;;;15.50;46.60;;;;;;4204669;28;20720;-46
2024/01/08 07:50:36;;;;;;;4.07;2.55;;;15.40;46.50;;;;;;4218851;27;20096;-47
2024/01/08 07:53:17;;;;;;;3.22;2.28;;;15.40;46.60;;;;;;4221864;27;20095;-46
2024/01/08 07:55:58;;;;;;;4.68;2.97;;;15.30;46.70;;;;;;4203105;27;20406;-46
2024/01/08 07:58:39;;;;;;;3.33;2.45;;;15.30;47.30;;;;;;4202016;27;20137;-47
2024/01/08 08:01:22;;;;;;;4.47;2.28;;;15.30;47.30;;;;;;4203693;27;20050;-47
2024/01/08 08:04:05;;;;;;;2.33;2.00;;;15.30;46.20;;;;;;4202039;27;20050;-51
2024/01/08 08:06:46;;;;;;;2.65;2.15;;;15.30;46.20;;;;;;4186625;28;20063;-47
2024/01/08 08:09:28;;;;;;;2.50;2.30;;;15.30;45.70;;;;;;4215027;27;20135;-52
2024/01/08 08:12:09;;;;;;;3.90;2.20;;;15.20;45.90;;;;;;4206575;27;20047;-48
2024/01/08 08:14:50;;;;;;;2.22;1.80;;;15.10;46.30;;;;;;4204671;28;20136;-50
2024/01/08 08:17:31;;;;;;;4.30;2.25;;;14.90;47.00;;;;;;4213732;27;20063;-48
2024/01/08 08:20:14;;;;;;;5.05;2.72;;;14.70;47.20;;;;;;4203656;27;20063;-49
2024/01/08 08:22:55;;;;;;;5.35;2.10;;;14.60;47.90;;;;;;4198787;28;20059;-49
2024/01/08 08:25:36;;;;;;;2.42;1.60;;;14.40;48.00;;;;;;4211548;27;20640;-48
2024/01/08 08:28:17;;;;;;;3.13;2.20;;;14.30;48.70;;;;;;4212106;27;20071;-47
2024/01/08 08:30:58;;;;;;;3.33;2.13;;;14.20;49.40;;;;;;4188294;27;20079;-50
2024/01/08 08:33:41;;;;;;;3.03;2.35;;;14.10;48.90;;;;;;4207494;27;20066;-49
2024/01/08 08:36:24;;;;;;;2.08;1.85;;;14.10;48.20;;;;;;4220984;27;20082;-49
2024/01/08 08:39:05;;;;;;;2.35;2.00;;;14.20;48.00;;;;;;4235431;27;20045;-50
2024/01/08 08:41:46;;;;;;;4.87;2.77;;;14.30;47.70;;;;;;4238168;27;20054;-45
2024/01/08 08:44:27;;;;;;;;;;;14.40;46.50;;;;;;4229782;27;20821;-51
2024/01/08 08:47:08;;;;;;;3.75;2.33;;;14.60;46.20;;;;;;4204365;28;19930;-48
2024/01/08 08:49:49;;;;;;;4.57;2.03;;;14.70;46.90;;;;;;4203407;28;20047;-45
2024/01/08 08:52:31;;;;;;;3.38;2.40;;;14.80;46.30;;;;;;4204628;28;20066;-47
2024/01/08 08:55:12;;;;;;;3.00;2.08;;;14.90;45.50;;;;;;4204780;27;20051;-39
2024/01/08 08:57:54;;;;;;;4.25;2.00;;;14.90;45.60;;;;;;4203862;28;20055;-39
2024/01/08 09:00:35;;;;;;;4.68;1.75;;;14.90;45.10;;;;;;4204300;28;20051;-39
2024/01/08 09:03:16;;;;;;;1.90;1.80;;;14.90;46.10;;;;;;4203965;28;20513;-49
2024/01/08 09:05:57;;;;;;;2.47;1.70;;;14.90;45.90;;;;;;4202422;28;20608;-49
2024/01/08 09:08:39;;;;;;;3.10;1.77;;;14.90;44.60;;;;;;4201351;28;20156;-46
2024/01/08 09:11:21;;;;;;;2.25;1.60;;;14.90;44.60;;;;;;4196448;28;20055;-48
2024/01/08 09:14:02;;;;;;;2.70;2.13;;;14.80;45.70;;;;;;4190639;28;20066;-46
2024/01/08 09:16:43;;;;;;;2.85;2.17;;;14.90;45.10;;;;;;4213211;27;20096;-46
2024/01/08 09:19:25;;;;;;;3.35;1.70;;;14.90;44.60;;;;;;4206186;27;20055;-46
2024/01/08 09:22:06;;;;;;;2.63;2.05;;;14.80;44.70;;;;;;4202068;28;20051;-49
2024/01/08 09:24:48;;;;;;;2.38;2.00;;;14.80;44.90;;;;;;4206298;27;20051;-45
2024/01/08 09:27:29;;;;;;;1.55;1.45;;;14.80;43.00;;;;;;4202279;28;20268;-45
2024/01/08 09:30:10;;;;;;;2.67;2.10;;;14.80;43.00;;;;;;4200662;28;20046;-47
2024/01/08 09:32:51;;;;;;;2.42;2.00;;;14.70;44.10;;;;;;4200165;28;20194;-38
2024/01/08 09:35:34;;;;;;;2.97;2.10;;;14.70;43.30;;;;;;4200703;27;20084;-38
2024/01/08 09:38:15;;;;;;;2.72;2.10;;;14.70;42.80;;;;;;4188019;27;20054;-38
2024/01/08 09:40:58;;;;;;;3.40;2.08;;;14.80;42.70;;;;;;4189789;27;20055;-38
2024/01/08 09:43:45;;;;;;;3.85;2.38;;;14.80;42.50;;;;;;4185325;27;20113;-38
2024/01/08 09:46:29;;;;;;;2.70;2.17;;;14.80;42.70;;;;;;4185155;28;20144;-38
2024/01/08 09:49:11;;;;;;;2.65;2.35;;;14.80;43.00;;;;;;4184880;27;20055;-39
2024/01/08 09:51:53;;;;;;;1.98;1.35;;;14.70;42.90;;;;;;4200529;27;20163;-38
2024/01/08 09:54:36;;;;;;;2.47;2.28;;;14.80;43.10;;;;;;4190267;27;20087;-38
2024/01/08 09:57:18;;;;;;;3.85;2.58;;;14.80;45.00;;;;;;4184893;27;20074;-39
2024/01/08 09:59:59;;;;;;;2.17;2.08;;;14.90;43.90;;;;;;4184734;28;20415;-38
2024/01/08 10:02:41;;;;;;;3.85;2.03;;;14.90;43.40;;;;;;4186310;27;20051;-38
2024/01/08 10:05:23;;;;;;;1.98;1.88;;;14.90;42.90;;;;;;4189142;27;20494;-38
2024/01/08 10:08:05;;;;;;;2.58;1.83;;;14.80;42.90;;;;;;4193312;27;20088;-40
2024/01/08 10:10:47;;;;;;;2.17;2.00;;;14.90;43.20;;;;;;4205521;27;20071;-39
2024/01/08 10:13:29;;;;;;;3.55;2.05;;;14.90;43.50;;;;;;4216943;27;20108;-39
2024/01/08 10:16:12;;;;;;;3.35;2.28;;;14.80;43.90;;;;;;4205492;27;20138;-38
2024/01/08 10:18:53;;;;;;;3.40;2.55;;;14.80;43.70;;;;;;4185212;28;20083;-47
2024/01/08 10:21:34;;;;;;;2.78;2.10;;;14.80;44.40;;;;;;4200104;28;20074;-38
2024/01/08 10:24:15;;;;;;;2.20;1.75;;;14.80;43.00;;;;;;4200336;27;20407;-37
2024/01/08 10:26:56;;;;;;;2.38;2.17;;;14.70;43.40;;;;;;4202296;27;20059;-38
2024/01/08 10:29:40;;;;;;;3.40;2.30;;;14.80;43.10;;;;;;4200044;27;20062;-37
2024/01/08 10:32:24;;;;;;;2.85;2.28;;;14.90;43.90;;;;;;4206998;27;20047;-38
2024/01/08 10:35:06;;;;;;;3.70;2.53;;;14.90;44.10;;;;;;4201238;27;20059;-38
2024/01/08 10:37:50;;;;;;;2.50;2.28;;;15.10;44.00;;;;;;4205457;27;20071;-37
2024/01/08 10:40:31;;;;;;;2.00;1.80;;;15.20;43.00;;;;;;4212353;27;20055;-38
2024/01/08 10:43:12;;;;;;;2.15;2.05;;;15.30;42.50;;;;;;4212299;27;20045;-39
2024/01/08 10:45:58;;;;;;;3.45;2.22;;;15.40;42.30;;;;;;4207592;27;20142;-38
2024/01/08 10:48:44;;;;;;;1.92;1.83;;;15.40;41.80;;;;;;4204509;28;20452;-39
2024/01/08 10:51:25;;;;;;;3.13;2.17;;;15.40;41.90;;;;;;4204601;28;20051;-39
2024/01/08 10:54:09;;;;;;;2.33;1.80;;;15.40;42.10;;;;;;4203477;28;20715;-38
2024/01/08 10:56:57;;;;;;;2.25;2.05;;;15.30;42.10;;;;;;4212137;27;20046;-39
2024/01/08 10:59:42;;;;;;;1.85;1.60;;;15.20;42.60;;;;;;4214325;27;20140;-38
2024/01/08 11:02:25;;;;;;;2.15;1.85;;;15.20;42.80;;;;;;4218536;27;20184;-37
2024/01/08 11:05:08;;;;;;;2.75;2.10;;;15.10;42.40;;;;;;4220112;27;20104;-38
2024/01/08 11:07:51;;;;;;;2.50;2.00;;;15.10;41.70;;;;;;4205106;27;20059;-37
2024/01/08 11:10:34;;;;;;;1.60;1.50;;;15.10;41.80;;;;;;4206246;27;20053;-38
2024/01/08 11:13:17;;;;;;;2.42;1.95;;;15.00;42.50;;;;;;4212038;27;20059;-38
2024/01/08 11:16:02;;;;;;;2.20;1.67;;;14.90;42.00;;;;;;4205751;27;20212;-38
2024/01/08 11:18:44;;;;;;;2.83;2.13;;;14.90;43.40;;;;;;4207215;27;20398;-47
2024/01/08 11:21:27;;;;;;;4.03;2.13;;;14.80;43.00;;;;;;4206054;27;20055;-47
2024/01/08 11:24:10;;;;;;;2.42;2.22;;;14.80;43.60;;;;;;4213015;28;20059;-46
2024/01/08 11:26:51;;;;;;;2.63;2.50;;;14.90;42.50;;;;;;4203803;28;20066;-48
2024/01/08 11:29:33;;;;;;;2.42;2.22;;;14.90;41.70;;;;;;4219672;27;20620;-47
2024/01/08 11:32:50;;;;;;;2.45;2.25;;;14.90;41.30;;;;;;4216433;27;20051;-47
2024/01/08 11:35:42;;;;;;;3.08;1.95;;;14.70;42.10;;;;;;4203290;27;20127;-46
2024/01/08 11:38:26;;;;;;;3.55;2.33;;;14.60;43.50;;;;;;4218934;27;20078;-47
2024/01/08 11:41:08;;;;;;;3.55;1.83;;;14.40;43.20;;;;;;4206000;27;20070;-46
2024/01/08 11:43:50;;;;;;;3.00;2.30;;;14.30;44.20;;;;;;4211942;27;20055;-47
2024/01/08 11:46:34;;;;;;;2.50;1.95;;;14.20;44.90;;;;;;4213706;27;20055;-47
2024/01/08 11:49:15;;;;;;;2.33;2.10;;;14.10;44.20;;;;;;4219265;27;20078;-46
2024/01/08 11:52:01;;;;;;;2.08;1.98;;;14.20;43.70;;;;;;4219827;27;20055;-46
2024/01/08 11:54:48;;;;;;;2.78;2.20;;;14.30;43.50;;;;;;4205959;27;20089;-46
2024/01/08 11:57:29;;;;;;;2.42;2.20;;;14.30;43.50;;;;;;4209126;27;20497;-47
2024/01/08 12:00:14;;;;;;;2.50;2.28;;;14.40;43.70;;;;;;4203080;27;20194;-46
2024/01/08 12:03:02;;;;;;;2.40;1.70;;;14.40;43.40;;;;;;4202610;28;20050;-46
2024/01/08 12:05:43;;;;;;;2.13;1.73;;;14.40;44.90;;;;;;4200606;28;20132;-47
2024/01/08 12:08:30;;;;;;;3.30;2.50;;;14.40;44.80;;;;;;4203602;27;20067;-48
2024/01/08 12:11:11;;;;;;;1.77;1.67;;;14.40;45.60;;;;;;4204128;28;20058;-48
2024/01/08 12:13:52;;;;;;;3.20;2.45;;;14.40;45.00;;;;;;4218277;27;20070;-37
2024/01/08 12:16:34;;;;;;;3.35;2.42;;;14.50;45.00;;;;;;4202695;28;20059;-39
2024/01/08 12:19:15;;;;;;;2.50;2.30;;;14.50;45.30;;;;;;4209745;27;20059;-48
2024/01/08 12:21:59;;;;;;;2.97;2.22;;;14.50;45.10;;;;;;4202681;28;20559;-48
2024/01/08 12:24:43;;;;;;;2.08;1.77;;;14.50;45.70;;;;;;4202531;28;20181;-46
2024/01/08 12:27:30;;;;;;;2.55;2.25;;;14.50;46.60;;;;;;4205500;27;20073;-50
2024/01/08 12:30:12;;;;;;;2.72;2.40;;;14.40;47.60;;;;;;4202607;27;20505;-38
2024/01/08 12:32:57;;;;;;;3.40;2.35;;;14.30;47.00;;;;;;4205470;27;20059;-37
2024/01/08 12:35:38;;;;;;;3.97;2.22;;;14.30;46.50;;;;;;4218266;27;20063;-37
2024/01/08 12:38:20;;;;;;;;;;;14.10;47.00;;;;;;4219108;27;20615;-38
2024/01/08 12:41:02;;;;;;;2.97;2.67;;;14.10;46.10;;;;;;4217370;27;20065;-38
2024/01/08 12:43:44;;;;;;;2.45;2.25;;;14.10;47.00;;;;;;4203451;27;20173;-38
2024/01/08 12:46:25;;;;;;;3.08;2.45;;;14.10;46.40;;;;;;4202343;28;20059;-37
2024/01/08 12:49:06;;;;;;;2.70;2.50;;;14.10;46.80;;;;;;4218161;27;20055;-37
2024/01/08 12:51:47;;;;;;;2.88;2.30;;;14.10;48.10;;;;;;4218553;27;20474;-37
2024/01/08 12:54:29;;;;;;;3.40;2.95;;;14.10;47.10;;;;;;4218539;27;20058;-38
2024/01/08 12:57:13;;;;;;;3.67;3.13;;;14.10;46.90;;;;;;4202359;28;20066;-47
2024/01/08 12:59:56;;;;;;;2.78;2.60;;;14.10;46.90;;;;;;4213759;27;20059;-38
2024/01/08 13:02:37;;;;;;;;;;;14.00;45.70;;;;;;4217135;27;20062;-38
2024/01/08 13:05:17;;;;;;;3.22;2.45;;;13.80;46.30;;;;;;4217476;27;19930;-37
2024/01/08 13:07:58;;;;;;;2.50;2.30;;;13.70;46.50;;;;;;4212505;27;20058;-37
2024/01/08 13:10:39;;;;;;;4.13;2.58;;;13.60;46.50;;;;;;4201689;28;20074;-37
2024/01/08 13:13:22;;;;;;;5.45;3.50;;;13.40;46.80;;;;;;4217825;27;20043;-37
2024/01/08 13:16:03;;;;;;;2.50;2.30;;;13.30;47.20;;;;;;4201691;28;20054;-37
2024/01/08 13:18:44;;;;;;;;;;;13.20;47.40;;;;;;4202533;27;20181;-38
2024/01/08 13:21:26;;;;;;;2.80;2.60;;;13.10;47.00;;;;;;4201557;28;19935;-38
2024/01/08 13:24:08;;;;;;;3.85;2.80;;;13.00;47.30;;;;;;4205768;27;20059;-37
2024/01/08 13:26:49;;;;;;;;;;;12.90;47.20;;;;;;4211685;27;20059;-39
2024/01/08 13:29:31;;;;;;;3.20;2.00;;;12.80;47.60;;;;;;4202705;27;19970;-38
2024/01/08 13:32:15;;;;;;;2.38;1.98;;;12.70;48.40;;;;;;4215146;27;20531;-38
2024/01/08 13:34:56;;;;;;;3.25;2.63;;;12.70;48.80;;;;;;4212674;27;20086;-38
2024/01/08 13:37:37;;;;;;;2.40;2.20;;;12.80;48.40;;;;;;4192333;28;20563;-38
2024/01/08 13:40:20;;;;;;;2.47;2.38;;;12.80;48.90;;;;;;4207906;27;20097;-38
2024/01/08 13:43:02;;;;;;;3.33;2.60;;;12.80;48.40;;;;;;4201955;28;20200;-38
2024/01/08 13:45:44;;;;;;;;;;;12.70;48.50;;;;;;4207040;27;20132;-38
2024/01/08 13:48:26;;;;;;;2.83;2.40;;;12.70;47.90;;;;;;4200985;28;19966;-37
2024/01/08 13:51:09;;;;;;;3.13;2.15;;;12.70;49.00;;;;;;4201994;28;20050;-38
2024/01/08 13:53:51;;;;;;;3.72;2.75;;;12.60;48.30;;;;;;4202874;28;20082;-38
2024/01/08 13:56:32;;;;;;;4.43;2.42;;;12.60;49.90;;;;;;4216993;27;20051;-38
2024/01/08 13:59:13;;;;;;;3.30;2.15;;;12.60;48.90;;;;;;4217465;27;20216;-38
2024/01/08 14:01:56;;;;;;;3.00;2.50;;;12.70;48.50;;;;;;4201750;28;20055;-48
2024/01/08 14:04:37;;;;;;;4.13;2.92;;;12.70;48.00;;;;;;4208214;27;20063;-52